sensor_id;sensor_type;location;lat;lon;timestamp;P1;durP1;ratioP1;P2;durP2;ratioP2
4812;SDS011;2420;51.202;8.698;2023-12-20T00:00:57;0.70;;;0.70;;
4812;SDS011;2420;51.202;8.698;2023-12-20T00:03:22;0.70;;;0.70;;
4812;SDS011;2420;51.202;8.698;2023-12-20T00:05:49;1.05;;;0.75;;
4812;SDS011;2420;51.202;8.698;2023-12-20T00:08:15;0.80;;;0.75;;
4812;SDS011;2420;51.202;8.698;2023-12-20T00:10:40;0.80;;;0.80;;
4812;SDS011;2420;51.202;8.698;2023-12-20T00:13:06;0.73;;;0.73;;
4812;SDS011;2420;51.202;8.698;2023-12-20T00:15:33;0.82;;;0.80;;
4812;SDS011;2420;51.202;8.698;2023-12-20T00:17:58;0.80;;;0.80;;
4812;SDS011;2420;51.202;8.698;2023-12-20T00:20:24;1.10;;;1.00;;
4812;SDS011;2420;51.202;8.698;2023-12-20T00:22:50;1.10;;;1.00;;
4812;SDS011;2420;51.202;8.698;2023-12-20T00:25:15;0.98;;;0.90;;
4812;SDS011;2420;51.202;8.698;2023-12-20T00:27:41;1.10;;;0.95;;
4812;SDS011;2420;51.202;8.698;2023-12-20T00:30:07;1.25;;;1.08;;
4812;SDS011;2420;51.202;8.698;2023-12-20T00:32:33;1.10;;;1.00;;
4812;SDS011;2420;51.202;8.698;2023-12-20T00:34:59;1.02;;;0.93;;
4812;SDS011;2420;51.202;8.698;2023-12-20T00:37:25;1.02;;;0.93;;
4812;SDS011;2420;51.202;8.698;2023-12-20T00:39:50;0.98;;;0.88;;
4812;SDS011;2420;51.202;8.698;2023-12-20T00:42:16;0.98;;;0.90;;
4812;SDS011;2420;51.202;8.698;2023-12-20T00:44:41;1.92;;;0.88;;
4812;SDS011;2420;51.202;8.698;2023-12-20T00:47:07;1.00;;;0.90;;
4812;SDS011;2420;51.202;8.698;2023-12-20T00:49:32;0.75;;;0.75;;
4812;SDS011;2420;51.202;8.698;2023-12-20T00:51:58;0.80;;;0.80;;
4812;SDS011;2420;51.202;8.698;2023-12-20T00:54:24;1.02;;;0.90;;
4812;SDS011;2420;51.202;8.698;2023-12-20T00:56:49;1.60;;;1.30;;
4812;SDS011;2420;51.202;8.698;2023-12-20T00:59:16;1.83;;;1.42;;
4812;SDS011;2420;51.202;8.698;2023-12-20T01:01:42;2.03;;;1.30;;
4812;SDS011;2420;51.202;8.698;2023-12-20T01:04:07;1.80;;;1.40;;
4812;SDS011;2420;51.202;8.698;2023-12-20T01:06:33;1.92;;;1.50;;
4812;SDS011;2420;51.202;8.698;2023-12-20T01:08:58;2.55;;;1.90;;
4812;SDS011;2420;51.202;8.698;2023-12-20T01:11:24;2.47;;;1.83;;
4812;SDS011;2420;51.202;8.698;2023-12-20T01:13:49;3.03;;;2.30;;
4812;SDS011;2420;51.202;8.698;2023-12-20T01:16:15;3.22;;;2.45;;
4812;SDS011;2420;51.202;8.698;2023-12-20T01:18:40;3.75;;;2.90;;
4812;SDS011;2420;51.202;8.698;2023-12-20T01:21:06;3.70;;;2.78;;
4812;SDS011;2420;51.202;8.698;2023-12-20T01:23:32;3.90;;;2.83;;
4812;SDS011;2420;51.202;8.698;2023-12-20T01:25:58;4.00;;;2.80;;
4812;SDS011;2420;51.202;8.698;2023-12-20T01:28:27;2.95;;;2.22;;
4812;SDS011;2420;51.202;8.698;2023-12-20T01:30:53;3.10;;;2.60;;
4812;SDS011;2420;51.202;8.698;2023-12-20T01:33:18;3.00;;;2.38;;
4812;SDS011;2420;51.202;8.698;2023-12-20T01:35:44;2.35;;;1.95;;
4812;SDS011;2420;51.202;8.698;2023-12-20T01:38:09;2.50;;;1.88;;
4812;SDS011;2420;51.202;8.698;2023-12-20T01:40:35;3.08;;;2.10;;
4812;SDS011;2420;51.202;8.698;2023-12-20T01:43:10;3.10;;;2.30;;
4812;SDS011;2420;51.202;8.698;2023-12-20T01:45:37;3.05;;;2.10;;
4812;SDS011;2420;51.202;8.698;2023-12-20T01:48:03;3.35;;;2.50;;
4812;SDS011;2420;51.202;8.698;2023-12-20T01:50:30;3.97;;;2.80;;
4812;SDS011;2420;51.202;8.698;2023-12-20T01:52:57;3.15;;;2.40;;
4812;SDS011;2420;51.202;8.698;2023-12-20T01:55:25;3.55;;;2.70;;
4812;SDS011;2420;51.202;8.698;2023-12-20T01:57:54;3.10;;;2.80;;
4812;SDS011;2420;51.202;8.698;2023-12-20T02:00:21;4.15;;;3.15;;
4812;SDS011;2420;51.202;8.698;2023-12-20T02:02:49;3.80;;;3.10;;
4812;SDS011;2420;51.202;8.698;2023-12-20T02:05:17;2.50;;;1.73;;
4812;SDS011;2420;51.202;8.698;2023-12-20T02:07:43;1.48;;;1.35;;
4812;SDS011;2420;51.202;8.698;2023-12-20T02:10:08;1.92;;;1.50;;
4812;SDS011;2420;51.202;8.698;2023-12-20T02:12:34;3.95;;;1.65;;
4812;SDS011;2420;51.202;8.698;2023-12-20T02:15:00;1.85;;;1.35;;
4812;SDS011;2420;51.202;8.698;2023-12-20T02:17:26;1.55;;;1.40;;
4812;SDS011;2420;51.202;8.698;2023-12-20T02:19:52;1.92;;;1.35;;
4812;SDS011;2420;51.202;8.698;2023-12-20T02:22:18;2.22;;;1.40;;
4812;SDS011;2420;51.202;8.698;2023-12-20T02:24:44;1.95;;;1.60;;
4812;SDS011;2420;51.202;8.698;2023-12-20T02:27:09;1.48;;;1.20;;
4812;SDS011;2420;51.202;8.698;2023-12-20T02:29:35;2.22;;;1.50;;
4812;SDS011;2420;51.202;8.698;2023-12-20T02:32:01;1.75;;;1.48;;
4812;SDS011;2420;51.202;8.698;2023-12-20T02:34:26;2.28;;;1.90;;
4812;SDS011;2420;51.202;8.698;2023-12-20T02:36:52;1.67;;;1.30;;
4812;SDS011;2420;51.202;8.698;2023-12-20T02:39:18;3.13;;;1.88;;
4812;SDS011;2420;51.202;8.698;2023-12-20T02:41:44;3.85;;;2.00;;
4812;SDS011;2420;51.202;8.698;2023-12-20T02:44:10;3.28;;;2.33;;
4812;SDS011;2420;51.202;8.698;2023-12-20T02:46:35;3.65;;;2.72;;
4812;SDS011;2420;51.202;8.698;2023-12-20T02:49:01;5.97;;;3.95;;
4812;SDS011;2420;51.202;8.698;2023-12-20T02:51:27;7.25;;;4.78;;
4812;SDS011;2420;51.202;8.698;2023-12-20T02:53:52;7.50;;;4.80;;
4812;SDS011;2420;51.202;8.698;2023-12-20T02:56:18;8.98;;;4.53;;
4812;SDS011;2420;51.202;8.698;2023-12-20T02:58:43;8.90;;;4.40;;
4812;SDS011;2420;51.202;8.698;2023-12-20T03:01:09;8.50;;;3.97;;
4812;SDS011;2420;51.202;8.698;2023-12-20T03:03:34;6.40;;;3.80;;
4812;SDS011;2420;51.202;8.698;2023-12-20T03:06:00;8.70;;;3.97;;
4812;SDS011;2420;51.202;8.698;2023-12-20T03:08:25;7.13;;;3.80;;
4812;SDS011;2420;51.202;8.698;2023-12-20T03:10:51;5.30;;;3.42;;
4812;SDS011;2420;51.202;8.698;2023-12-20T03:13:18;6.30;;;3.30;;
4812;SDS011;2420;51.202;8.698;2023-12-20T03:15:44;8.02;;;3.05;;
4812;SDS011;2420;51.202;8.698;2023-12-20T03:18:09;5.07;;;2.92;;
4812;SDS011;2420;51.202;8.698;2023-12-20T03:20:35;7.32;;;2.85;;
4812;SDS011;2420;51.202;8.698;2023-12-20T03:23:00;5.75;;;3.15;;
4812;SDS011;2420;51.202;8.698;2023-12-20T03:25:26;5.65;;;2.75;;
4812;SDS011;2420;51.202;8.698;2023-12-20T03:27:52;3.40;;;2.70;;
4812;SDS011;2420;51.202;8.698;2023-12-20T03:30:18;5.05;;;2.90;;
4812;SDS011;2420;51.202;8.698;2023-12-20T03:32:44;5.03;;;3.28;;
4812;SDS011;2420;51.202;8.698;2023-12-20T03:35:09;3.38;;;2.70;;
4812;SDS011;2420;51.202;8.698;2023-12-20T03:37:35;9.57;;;3.80;;
4812;SDS011;2420;51.202;8.698;2023-12-20T03:40:01;6.88;;;3.60;;
4812;SDS011;2420;51.202;8.698;2023-12-20T03:42:27;5.60;;;3.83;;
4812;SDS011;2420;51.202;8.698;2023-12-20T03:44:52;8.55;;;4.25;;
4812;SDS011;2420;51.202;8.698;2023-12-20T03:47:18;6.68;;;3.97;;
4812;SDS011;2420;51.202;8.698;2023-12-20T03:49:43;7.60;;;4.05;;
4812;SDS011;2420;51.202;8.698;2023-12-20T03:52:09;8.77;;;4.45;;
4812;SDS011;2420;51.202;8.698;2023-12-20T03:54:35;8.55;;;4.45;;
4812;SDS011;2420;51.202;8.698;2023-12-20T03:57:00;8.00;;;3.90;;
4812;SDS011;2420;51.202;8.698;2023-12-20T03:59:26;10.55;;;4.97;;
4812;SDS011;2420;51.202;8.698;2023-12-20T04:01:51;9.85;;;4.90;;
4812;SDS011;2420;51.202;8.698;2023-12-20T04:04:17;11.70;;;5.00;;
4812;SDS011;2420;51.202;8.698;2023-12-20T04:06:43;6.97;;;4.03;;
4812;SDS011;2420;51.202;8.698;2023-12-20T04:09:08;7.65;;;4.30;;
4812;SDS011;2420;51.202;8.698;2023-12-20T04:11:34;10.65;;;4.13;;
4812;SDS011;2420;51.202;8.698;2023-12-20T04:14:00;6.13;;;3.55;;
4812;SDS011;2420;51.202;8.698;2023-12-20T04:16:25;7.20;;;4.03;;
4812;SDS011;2420;51.202;8.698;2023-12-20T04:18:51;9.10;;;3.80;;
4812;SDS011;2420;51.202;8.698;2023-12-20T04:21:17;5.28;;;3.10;;
4812;SDS011;2420;51.202;8.698;2023-12-20T04:23:43;6.57;;;3.00;;
4812;SDS011;2420;51.202;8.698;2023-12-20T04:26:08;5.93;;;3.55;;
4812;SDS011;2420;51.202;8.698;2023-12-20T04:28:34;6.90;;;3.20;;
4812;SDS011;2420;51.202;8.698;2023-12-20T04:31:00;6.43;;;3.53;;
4812;SDS011;2420;51.202;8.698;2023-12-20T04:33:25;8.98;;;3.45;;
4812;SDS011;2420;51.202;8.698;2023-12-20T04:35:51;8.13;;;3.97;;
4812;SDS011;2420;51.202;8.698;2023-12-20T04:38:16;6.80;;;3.80;;
4812;SDS011;2420;51.202;8.698;2023-12-20T04:40:42;8.55;;;4.50;;
4812;SDS011;2420;51.202;8.698;2023-12-20T04:43:07;7.13;;;3.47;;
4812;SDS011;2420;51.202;8.698;2023-12-20T04:45:33;9.15;;;4.60;;
4812;SDS011;2420;51.202;8.698;2023-12-20T04:47:59;12.73;;;5.00;;
4812;SDS011;2420;51.202;8.698;2023-12-20T04:50:25;6.57;;;4.32;;
4812;SDS011;2420;51.202;8.698;2023-12-20T04:52:51;7.35;;;4.38;;
4812;SDS011;2420;51.202;8.698;2023-12-20T04:55:16;5.30;;;3.50;;
4812;SDS011;2420;51.202;8.698;2023-12-20T04:57:42;9.40;;;3.47;;
4812;SDS011;2420;51.202;8.698;2023-12-20T05:00:08;6.15;;;3.38;;
4812;SDS011;2420;51.202;8.698;2023-12-20T05:02:34;8.95;;;3.67;;
4812;SDS011;2420;51.202;8.698;2023-12-20T05:05:00;6.22;;;3.42;;
4812;SDS011;2420;51.202;8.698;2023-12-20T05:07:26;7.85;;;3.78;;
4812;SDS011;2420;51.202;8.698;2023-12-20T05:09:51;7.10;;;3.65;;
4812;SDS011;2420;51.202;8.698;2023-12-20T05:12:17;8.95;;;3.30;;
4812;SDS011;2420;51.202;8.698;2023-12-20T05:14:42;10.00;;;3.60;;
4812;SDS011;2420;51.202;8.698;2023-12-20T05:17:08;8.02;;;3.40;;
4812;SDS011;2420;51.202;8.698;2023-12-20T05:19:33;7.68;;;3.47;;
4812;SDS011;2420;51.202;8.698;2023-12-20T05:22:00;6.10;;;3.50;;
4812;SDS011;2420;51.202;8.698;2023-12-20T05:24:26;11.05;;;3.80;;
4812;SDS011;2420;51.202;8.698;2023-12-20T05:26:52;8.15;;;3.10;;
4812;SDS011;2420;51.202;8.698;2023-12-20T05:29:18;7.45;;;3.08;;
4812;SDS011;2420;51.202;8.698;2023-12-20T05:31:43;6.85;;;2.63;;
4812;SDS011;2420;51.202;8.698;2023-12-20T05:34:09;7.95;;;2.70;;
4812;SDS011;2420;51.202;8.698;2023-12-20T05:36:34;5.60;;;2.60;;
4812;SDS011;2420;51.202;8.698;2023-12-20T05:39:00;6.97;;;3.03;;
4812;SDS011;2420;51.202;8.698;2023-12-20T05:41:26;4.75;;;2.47;;
4812;SDS011;2420;51.202;8.698;2023-12-20T05:43:52;6.75;;;2.78;;
4812;SDS011;2420;51.202;8.698;2023-12-20T05:46:17;7.80;;;3.22;;
4812;SDS011;2420;51.202;8.698;2023-12-20T05:48:43;6.95;;;2.55;;
4812;SDS011;2420;51.202;8.698;2023-12-20T05:51:11;7.70;;;2.80;;
4812;SDS011;2420;51.202;8.698;2023-12-20T05:53:36;4.80;;;2.55;;
4812;SDS011;2420;51.202;8.698;2023-12-20T05:56:02;8.45;;;3.45;;
4812;SDS011;2420;51.202;8.698;2023-12-20T05:58:28;6.78;;;3.05;;
4812;SDS011;2420;51.202;8.698;2023-12-20T06:00:54;10.07;;;3.60;;
4812;SDS011;2420;51.202;8.698;2023-12-20T06:03:19;12.75;;;3.38;;
4812;SDS011;2420;51.202;8.698;2023-12-20T06:05:45;8.38;;;2.85;;
4812;SDS011;2420;51.202;8.698;2023-12-20T06:08:11;8.85;;;3.30;;
4812;SDS011;2420;51.202;8.698;2023-12-20T06:10:36;7.80;;;2.92;;
4812;SDS011;2420;51.202;8.698;2023-12-20T06:13:02;11.75;;;3.47;;
4812;SDS011;2420;51.202;8.698;2023-12-20T06:15:30;7.22;;;3.25;;
4812;SDS011;2420;51.202;8.698;2023-12-20T06:17:55;9.80;;;3.47;;
4812;SDS011;2420;51.202;8.698;2023-12-20T06:20:21;9.55;;;3.17;;
4812;SDS011;2420;51.202;8.698;2023-12-20T06:22:46;8.98;;;3.15;;
4812;SDS011;2420;51.202;8.698;2023-12-20T06:25:12;6.35;;;3.65;;
4812;SDS011;2420;51.202;8.698;2023-12-20T06:27:37;10.85;;;3.20;;
4812;SDS011;2420;51.202;8.698;2023-12-20T06:30:03;7.97;;;3.00;;
4812;SDS011;2420;51.202;8.698;2023-12-20T06:32:29;6.65;;;3.13;;
4812;SDS011;2420;51.202;8.698;2023-12-20T06:34:55;10.57;;;3.33;;
4812;SDS011;2420;51.202;8.698;2023-12-20T06:37:21;11.48;;;3.70;;
4812;SDS011;2420;51.202;8.698;2023-12-20T06:39:46;8.55;;;3.10;;
4812;SDS011;2420;51.202;8.698;2023-12-20T06:42:12;9.50;;;3.35;;
4812;SDS011;2420;51.202;8.698;2023-12-20T06:44:38;7.72;;;3.42;;
4812;SDS011;2420;51.202;8.698;2023-12-20T06:47:04;7.88;;;3.10;;
4812;SDS011;2420;51.202;8.698;2023-12-20T06:49:30;5.00;;;2.80;;
4812;SDS011;2420;51.202;8.698;2023-12-20T06:51:55;8.63;;;3.25;;
4812;SDS011;2420;51.202;8.698;2023-12-20T06:54:21;9.10;;;2.90;;
4812;SDS011;2420;51.202;8.698;2023-12-20T06:56:47;7.53;;;2.92;;
4812;SDS011;2420;51.202;8.698;2023-12-20T06:59:12;7.45;;;2.90;;
4812;SDS011;2420;51.202;8.698;2023-12-20T07:01:38;9.38;;;3.13;;
4812;SDS011;2420;51.202;8.698;2023-12-20T07:04:03;8.18;;;3.25;;
4812;SDS011;2420;51.202;8.698;2023-12-20T07:06:29;9.90;;;3.75;;
4812;SDS011;2420;51.202;8.698;2023-12-20T07:08:54;9.95;;;3.25;;
4812;SDS011;2420;51.202;8.698;2023-12-20T07:11:20;9.35;;;3.38;;
4812;SDS011;2420;51.202;8.698;2023-12-20T07:13:46;8.50;;;3.03;;
4812;SDS011;2420;51.202;8.698;2023-12-20T07:16:11;9.73;;;3.40;;
4812;SDS011;2420;51.202;8.698;2023-12-20T07:18:38;6.25;;;2.95;;
4812;SDS011;2420;51.202;8.698;2023-12-20T07:21:03;12.48;;;3.15;;
4812;SDS011;2420;51.202;8.698;2023-12-20T07:23:29;8.20;;;3.00;;
4812;SDS011;2420;51.202;8.698;2023-12-20T07:25:55;10.73;;;2.97;;
4812;SDS011;2420;51.202;8.698;2023-12-20T07:28:20;10.32;;;2.95;;
4812;SDS011;2420;51.202;8.698;2023-12-20T07:30:46;10.05;;;3.15;;
4812;SDS011;2420;51.202;8.698;2023-12-20T07:33:11;9.88;;;2.80;;
4812;SDS011;2420;51.202;8.698;2023-12-20T07:35:37;10.55;;;3.25;;
4812;SDS011;2420;51.202;8.698;2023-12-20T07:38:03;9.80;;;3.03;;
4812;SDS011;2420;51.202;8.698;2023-12-20T07:40:28;7.75;;;2.88;;
4812;SDS011;2420;51.202;8.698;2023-12-20T07:42:54;10.32;;;3.15;;
4812;SDS011;2420;51.202;8.698;2023-12-20T07:45:20;6.40;;;2.97;;
4812;SDS011;2420;51.202;8.698;2023-12-20T07:47:45;9.40;;;3.30;;
4812;SDS011;2420;51.202;8.698;2023-12-20T07:50:11;6.65;;;2.95;;
4812;SDS011;2420;51.202;8.698;2023-12-20T07:52:36;8.23;;;3.25;;
4812;SDS011;2420;51.202;8.698;2023-12-20T07:55:02;9.13;;;3.42;;
4812;SDS011;2420;51.202;8.698;2023-12-20T07:57:29;9.98;;;3.30;;
4812;SDS011;2420;51.202;8.698;2023-12-20T07:59:55;12.13;;;3.17;;
4812;SDS011;2420;51.202;8.698;2023-12-20T08:02:21;8.57;;;3.03;;
4812;SDS011;2420;51.202;8.698;2023-12-20T08:04:46;12.93;;;3.30;;
4812;SDS011;2420;51.202;8.698;2023-12-20T08:07:12;5.90;;;2.75;;
4812;SDS011;2420;51.202;8.698;2023-12-20T08:09:37;7.55;;;2.67;;
4812;SDS011;2420;51.202;8.698;2023-12-20T08:12:03;6.05;;;2.70;;
4812;SDS011;2420;51.202;8.698;2023-12-20T08:14:29;6.38;;;2.55;;
4812;SDS011;2420;51.202;8.698;2023-12-20T08:16:54;5.32;;;2.38;;
4812;SDS011;2420;51.202;8.698;2023-12-20T08:19:20;4.43;;;2.85;;
4812;SDS011;2420;51.202;8.698;2023-12-20T08:21:46;10.55;;;2.92;;
4812;SDS011;2420;51.202;8.698;2023-12-20T08:24:11;7.40;;;3.03;;
4812;SDS011;2420;51.202;8.698;2023-12-20T08:26:37;6.47;;;2.90;;
4812;SDS011;2420;51.202;8.698;2023-12-20T08:29:02;8.02;;;2.60;;
4812;SDS011;2420;51.202;8.698;2023-12-20T08:31:28;9.52;;;2.65;;
4812;SDS011;2420;51.202;8.698;2023-12-20T08:33:53;3.60;;;2.58;;
4812;SDS011;2420;51.202;8.698;2023-12-20T08:36:19;5.68;;;2.53;;
4812;SDS011;2420;51.202;8.698;2023-12-20T08:38:48;9.05;;;3.63;;
4812;SDS011;2420;51.202;8.698;2023-12-20T08:41:15;4.72;;;2.20;;
4812;SDS011;2420;51.202;8.698;2023-12-20T08:43:43;5.63;;;2.35;;
4812;SDS011;2420;51.202;8.698;2023-12-20T08:46:09;6.15;;;2.30;;
4812;SDS011;2420;51.202;8.698;2023-12-20T08:48:34;5.03;;;2.67;;
4812;SDS011;2420;51.202;8.698;2023-12-20T08:51:00;6.88;;;3.15;;
4812;SDS011;2420;51.202;8.698;2023-12-20T08:53:26;6.20;;;2.80;;
4812;SDS011;2420;51.202;8.698;2023-12-20T08:55:52;4.78;;;2.65;;
4812;SDS011;2420;51.202;8.698;2023-12-20T08:58:17;8.90;;;3.00;;
4812;SDS011;2420;51.202;8.698;2023-12-20T09:00:43;6.38;;;3.20;;
4812;SDS011;2420;51.202;8.698;2023-12-20T09:03:08;9.13;;;3.20;;
4812;SDS011;2420;51.202;8.698;2023-12-20T09:05:34;8.13;;;3.55;;
4812;SDS011;2420;51.202;8.698;2023-12-20T09:08:00;9.00;;;3.75;;
4812;SDS011;2420;51.202;8.698;2023-12-20T09:10:25;7.57;;;3.63;;
4812;SDS011;2420;51.202;8.698;2023-12-20T09:12:51;7.15;;;3.65;;
4812;SDS011;2420;51.202;8.698;2023-12-20T09:15:21;6.28;;;3.42;;
4812;SDS011;2420;51.202;8.698;2023-12-20T09:17:48;9.05;;;3.50;;
4812;SDS011;2420;51.202;8.698;2023-12-20T09:20:13;5.68;;;3.30;;
4812;SDS011;2420;51.202;8.698;2023-12-20T09:22:39;8.48;;;3.58;;
4812;SDS011;2420;51.202;8.698;2023-12-20T09:25:06;8.27;;;3.83;;
4812;SDS011;2420;51.202;8.698;2023-12-20T09:27:32;5.53;;;3.40;;
4812;SDS011;2420;51.202;8.698;2023-12-20T09:29:58;9.65;;;3.75;;
4812;SDS011;2420;51.202;8.698;2023-12-20T09:32:23;8.45;;;3.38;;
4812;SDS011;2420;51.202;8.698;2023-12-20T09:34:49;7.60;;;3.20;;
4812;SDS011;2420;51.202;8.698;2023-12-20T09:37:14;7.10;;;3.30;;
4812;SDS011;2420;51.202;8.698;2023-12-20T09:39:40;9.63;;;3.90;;
4812;SDS011;2420;51.202;8.698;2023-12-20T09:42:06;9.07;;;3.38;;
4812;SDS011;2420;51.202;8.698;2023-12-20T09:44:32;8.27;;;4.20;;
4812;SDS011;2420;51.202;8.698;2023-12-20T09:47:00;8.60;;;3.20;;
4812;SDS011;2420;51.202;8.698;2023-12-20T09:49:28;5.97;;;3.88;;
4812;SDS011;2420;51.202;8.698;2023-12-20T09:51:54;8.63;;;4.22;;
4812;SDS011;2420;51.202;8.698;2023-12-20T09:54:21;12.18;;;5.03;;
4812;SDS011;2420;51.202;8.698;2023-12-20T09:56:48;14.73;;;6.57;;
4812;SDS011;2420;51.202;8.698;2023-12-20T09:59:14;14.55;;;6.32;;
4812;SDS011;2420;51.202;8.698;2023-12-20T10:01:40;10.07;;;4.68;;
4812;SDS011;2420;51.202;8.698;2023-12-20T10:04:06;12.52;;;6.05;;
4812;SDS011;2420;51.202;8.698;2023-12-20T10:06:37;12.38;;;5.32;;
4812;SDS011;2420;51.202;8.698;2023-12-20T10:09:06;13.95;;;5.45;;
4812;SDS011;2420;51.202;8.698;2023-12-20T10:11:31;24.00;;;9.98;;
4812;SDS011;2420;51.202;8.698;2023-12-20T10:14:00;17.25;;;7.57;;
4812;SDS011;2420;51.202;8.698;2023-12-20T10:16:27;20.10;;;7.78;;
4812;SDS011;2420;51.202;8.698;2023-12-20T10:18:53;24.05;;;10.38;;
4812;SDS011;2420;51.202;8.698;2023-12-20T10:21:19;23.90;;;9.90;;
4812;SDS011;2420;51.202;8.698;2023-12-20T10:23:45;10.40;;;4.97;;
4812;SDS011;2420;51.202;8.698;2023-12-20T10:26:18;8.98;;;4.03;;
4812;SDS011;2420;51.202;8.698;2023-12-20T10:28:45;8.25;;;3.30;;
4812;SDS011;2420;51.202;8.698;2023-12-20T10:31:10;9.93;;;3.85;;
4812;SDS011;2420;51.202;8.698;2023-12-20T10:33:50;8.32;;;3.50;;
4812;SDS011;2420;51.202;8.698;2023-12-20T10:36:16;10.55;;;3.60;;
4812;SDS011;2420;51.202;8.698;2023-12-20T10:38:41;8.27;;;3.50;;
4812;SDS011;2420;51.202;8.698;2023-12-20T10:41:07;11.70;;;4.30;;
4812;SDS011;2420;51.202;8.698;2023-12-20T10:43:34;7.93;;;3.65;;
4812;SDS011;2420;51.202;8.698;2023-12-20T10:46:03;6.65;;;3.38;;
4812;SDS011;2420;51.202;8.698;2023-12-20T10:48:30;6.45;;;3.72;;
4812;SDS011;2420;51.202;8.698;2023-12-20T10:50:57;7.93;;;3.30;;
4812;SDS011;2420;51.202;8.698;2023-12-20T10:53:24;7.93;;;3.13;;
4812;SDS011;2420;51.202;8.698;2023-12-20T10:55:50;5.50;;;2.92;;
4812;SDS011;2420;51.202;8.698;2023-12-20T10:58:20;6.75;;;3.28;;
4812;SDS011;2420;51.202;8.698;2023-12-20T11:00:47;7.72;;;3.15;;
4812;SDS011;2420;51.202;8.698;2023-12-20T11:03:21;8.05;;;3.33;;
4812;SDS011;2420;51.202;8.698;2023-12-20T11:08:46;6.13;;;2.88;;
4812;SDS011;2420;51.202;8.698;2023-12-20T11:14:00;10.20;;;4.32;;
4812;SDS011;2420;51.202;8.698;2023-12-20T11:16:33;6.82;;;3.28;;
4812;SDS011;2420;51.202;8.698;2023-12-20T11:19:04;8.15;;;3.50;;
4812;SDS011;2420;51.202;8.698;2023-12-20T11:21:30;6.68;;;4.55;;
4812;SDS011;2420;51.202;8.698;2023-12-20T11:23:56;5.90;;;3.63;;
4812;SDS011;2420;51.202;8.698;2023-12-20T11:26:28;6.88;;;3.72;;
4812;SDS011;2420;51.202;8.698;2023-12-20T11:28:54;8.55;;;3.80;;
4812;SDS011;2420;51.202;8.698;2023-12-20T11:32:00;10.82;;;3.83;;
4812;SDS011;2420;51.202;8.698;2023-12-20T11:34:27;8.80;;;3.83;;
4812;SDS011;2420;51.202;8.698;2023-12-20T11:37:00;7.43;;;4.10;;
4812;SDS011;2420;51.202;8.698;2023-12-20T11:39:27;9.25;;;3.60;;
4812;SDS011;2420;51.202;8.698;2023-12-20T11:41:54;9.65;;;4.30;;
4812;SDS011;2420;51.202;8.698;2023-12-20T11:44:21;7.70;;;3.65;;
4812;SDS011;2420;51.202;8.698;2023-12-20T11:46:47;6.70;;;3.75;;
4812;SDS011;2420;51.202;8.698;2023-12-20T11:49:13;6.07;;;3.33;;
4812;SDS011;2420;51.202;8.698;2023-12-20T11:51:42;5.70;;;3.00;;
4812;SDS011;2420;51.202;8.698;2023-12-20T11:54:08;7.38;;;3.05;;
4812;SDS011;2420;51.202;8.698;2023-12-20T11:56:35;6.53;;;3.13;;
4812;SDS011;2420;51.202;8.698;2023-12-20T11:59:01;6.53;;;2.50;;
4812;SDS011;2420;51.202;8.698;2023-12-20T12:01:27;5.57;;;2.78;;
4812;SDS011;2420;51.202;8.698;2023-12-20T12:04:03;8.65;;;2.65;;
4812;SDS011;2420;51.202;8.698;2023-12-20T12:06:29;8.38;;;2.50;;
4812;SDS011;2420;51.202;8.698;2023-12-20T12:08:54;2.97;;;2.00;;
4812;SDS011;2420;51.202;8.698;2023-12-20T12:11:20;5.18;;;2.35;;
4812;SDS011;2420;51.202;8.698;2023-12-20T12:13:46;2.63;;;1.58;;
4812;SDS011;2420;51.202;8.698;2023-12-20T12:16:12;2.92;;;1.75;;
4812;SDS011;2420;51.202;8.698;2023-12-20T12:18:41;3.58;;;1.95;;
4812;SDS011;2420;51.202;8.698;2023-12-20T12:21:07;4.07;;;1.70;;
4812;SDS011;2420;51.202;8.698;2023-12-20T12:23:32;4.47;;;2.10;;
4812;SDS011;2420;51.202;8.698;2023-12-20T12:25:58;3.42;;;1.83;;
4812;SDS011;2420;51.202;8.698;2023-12-20T12:28:25;2.55;;;1.80;;
4812;SDS011;2420;51.202;8.698;2023-12-20T12:30:56;2.75;;;1.63;;
4812;SDS011;2420;51.202;8.698;2023-12-20T12:33:24;3.45;;;2.30;;
4812;SDS011;2420;51.202;8.698;2023-12-20T12:35:50;2.65;;;1.90;;
4812;SDS011;2420;51.202;8.698;2023-12-20T12:38:16;5.13;;;2.30;;
4812;SDS011;2420;51.202;8.698;2023-12-20T12:40:44;2.60;;;2.03;;
4812;SDS011;2420;51.202;8.698;2023-12-20T12:43:10;2.75;;;1.95;;
4812;SDS011;2420;51.202;8.698;2023-12-20T12:45:37;3.22;;;2.30;;
4812;SDS011;2420;51.202;8.698;2023-12-20T12:48:03;3.30;;;2.22;;
4812;SDS011;2420;51.202;8.698;2023-12-20T12:50:30;4.03;;;2.40;;
4812;SDS011;2420;51.202;8.698;2023-12-20T12:52:56;5.65;;;2.42;;
4812;SDS011;2420;51.202;8.698;2023-12-20T12:55:21;3.63;;;2.78;;
4812;SDS011;2420;51.202;8.698;2023-12-20T12:57:47;2.85;;;2.10;;
4812;SDS011;2420;51.202;8.698;2023-12-20T13:00:12;3.58;;;2.28;;
4812;SDS011;2420;51.202;8.698;2023-12-20T13:02:38;5.43;;;2.72;;
4812;SDS011;2420;51.202;8.698;2023-12-20T13:05:07;3.67;;;2.75;;
4812;SDS011;2420;51.202;8.698;2023-12-20T13:07:33;3.83;;;2.55;;
4812;SDS011;2420;51.202;8.698;2023-12-20T13:09:59;5.18;;;2.78;;
4812;SDS011;2420;51.202;8.698;2023-12-20T13:12:25;3.70;;;2.53;;
4812;SDS011;2420;51.202;8.698;2023-12-20T13:14:51;5.32;;;2.83;;
4812;SDS011;2420;51.202;8.698;2023-12-20T13:17:16;3.70;;;2.65;;
4812;SDS011;2420;51.202;8.698;2023-12-20T13:19:42;4.80;;;2.90;;
4812;SDS011;2420;51.202;8.698;2023-12-20T13:22:08;8.15;;;4.10;;
4812;SDS011;2420;51.202;8.698;2023-12-20T13:24:33;5.70;;;3.30;;
4812;SDS011;2420;51.202;8.698;2023-12-20T13:26:59;23.05;;;12.15;;
4812;SDS011;2420;51.202;8.698;2023-12-20T13:29:25;18.85;;;11.20;;
4812;SDS011;2420;51.202;8.698;2023-12-20T13:31:52;10.10;;;6.15;;
4812;SDS011;2420;51.202;8.698;2023-12-20T13:34:18;10.50;;;6.80;;
4812;SDS011;2420;51.202;8.698;2023-12-20T13:36:44;4.15;;;3.33;;
4812;SDS011;2420;51.202;8.698;2023-12-20T13:39:14;6.63;;;4.22;;
4812;SDS011;2420;51.202;8.698;2023-12-20T13:41:40;4.10;;;3.35;;
4812;SDS011;2420;51.202;8.698;2023-12-20T13:44:06;5.55;;;3.72;;
4812;SDS011;2420;51.202;8.698;2023-12-20T13:46:31;5.88;;;3.63;;
4812;SDS011;2420;51.202;8.698;2023-12-20T13:48:57;4.45;;;3.22;;
4812;SDS011;2420;51.202;8.698;2023-12-20T13:51:22;4.40;;;2.95;;
4812;SDS011;2420;51.202;8.698;2023-12-20T13:53:48;5.15;;;3.30;;
4812;SDS011;2420;51.202;8.698;2023-12-20T13:56:14;6.22;;;3.53;;
4812;SDS011;2420;51.202;8.698;2023-12-20T13:58:40;8.20;;;2.78;;
4812;SDS011;2420;51.202;8.698;2023-12-20T14:01:06;7.13;;;2.60;;
4812;SDS011;2420;51.202;8.698;2023-12-20T14:03:33;4.10;;;2.97;;
4812;SDS011;2420;51.202;8.698;2023-12-20T14:05:59;9.13;;;3.83;;
4812;SDS011;2420;51.202;8.698;2023-12-20T14:08:26;6.90;;;3.30;;
4812;SDS011;2420;51.202;8.698;2023-12-20T14:10:52;5.13;;;3.45;;
4812;SDS011;2420;51.202;8.698;2023-12-20T14:13:18;8.90;;;3.42;;
4812;SDS011;2420;51.202;8.698;2023-12-20T14:15:43;10.20;;;3.80;;
4812;SDS011;2420;51.202;8.698;2023-12-20T14:18:09;7.43;;;3.45;;
4812;SDS011;2420;51.202;8.698;2023-12-20T14:20:35;9.70;;;4.43;;
4812;SDS011;2420;51.202;8.698;2023-12-20T14:23:01;10.73;;;4.78;;
4812;SDS011;2420;51.202;8.698;2023-12-20T14:25:27;7.68;;;4.32;;
4812;SDS011;2420;51.202;8.698;2023-12-20T14:27:53;4.68;;;3.05;;
4812;SDS011;2420;51.202;8.698;2023-12-20T14:30:19;7.28;;;3.55;;
4812;SDS011;2420;51.202;8.698;2023-12-20T14:32:45;5.47;;;3.45;;
4812;SDS011;2420;51.202;8.698;2023-12-20T14:35:12;6.38;;;3.58;;
4812;SDS011;2420;51.202;8.698;2023-12-20T14:37:38;5.13;;;3.35;;
4812;SDS011;2420;51.202;8.698;2023-12-20T14:40:05;9.82;;;4.90;;
4812;SDS011;2420;51.202;8.698;2023-12-20T14:42:35;10.57;;;5.10;;
4812;SDS011;2420;51.202;8.698;2023-12-20T14:45:00;9.20;;;3.80;;
4812;SDS011;2420;51.202;8.698;2023-12-20T14:47:26;7.32;;;3.75;;
4812;SDS011;2420;51.202;8.698;2023-12-20T14:49:52;6.13;;;3.38;;
4812;SDS011;2420;51.202;8.698;2023-12-20T14:52:17;5.43;;;3.88;;
4812;SDS011;2420;51.202;8.698;2023-12-20T14:54:43;5.95;;;3.33;;
4812;SDS011;2420;51.202;8.698;2023-12-20T14:57:09;6.68;;;3.55;;
4812;SDS011;2420;51.202;8.698;2023-12-20T14:59:35;7.60;;;3.42;;
4812;SDS011;2420;51.202;8.698;2023-12-20T15:02:00;4.82;;;3.22;;
4812;SDS011;2420;51.202;8.698;2023-12-20T15:04:29;5.88;;;3.20;;
4812;SDS011;2420;51.202;8.698;2023-12-20T15:06:58;5.38;;;2.83;;
4812;SDS011;2420;51.202;8.698;2023-12-20T15:09:23;6.47;;;3.25;;
4812;SDS011;2420;51.202;8.698;2023-12-20T15:11:49;5.20;;;2.60;;